createdAt,value
2023-02-02T00:01:52.801Z,1.58
2023-02-02T00:04:22.578Z,1.58
2023-02-02T00:06:50.751Z,0.73
2023-02-02T00:09:20.538Z,2.15
2023-02-02T00:11:50.972Z,1.63
2023-02-02T00:14:18.997Z,1.80
2023-02-02T00:16:47.953Z,1.70
2023-02-02T00:21:44.503Z,2.33
2023-02-02T00:24:13.772Z,1.48
2023-02-02T00:26:44.487Z,1.80
2023-02-02T00:29:16.166Z,2.10
2023-02-02T00:31:43.666Z,1.80
2023-02-02T00:34:12.183Z,1.90
2023-02-02T00:36:39.927Z,1.75
2023-02-02T00:39:07.807Z,1.10
2023-02-02T00:41:35.248Z,1.90
2023-02-02T00:44:20.481Z,1.38
2023-02-02T00:46:49.287Z,1.23
2023-02-02T00:49:16.787Z,1.55
2023-02-02T00:51:44.250Z,2.42
2023-02-02T00:54:11.820Z,2.13
2023-02-02T00:56:39.289Z,1.20
2023-02-02T00:59:06.749Z,2.05
2023-02-02T01:01:34.448Z,2.13
2023-02-02T01:04:03.288Z,1.52
2023-02-02T01:06:30.764Z,1.77
2023-02-02T01:08:58.364Z,1.05
2023-02-02T01:11:26.526Z,1.83
2023-02-02T01:13:53.973Z,2.85
2023-02-02T01:16:22.327Z,1.40
2023-02-02T01:18:50.055Z,0.63
2023-02-02T01:21:19.210Z,1.27
2023-02-02T01:23:46.656Z,1.08
2023-02-02T01:26:14.991Z,1.35
2023-02-02T01:28:42.774Z,1.60
2023-02-02T01:31:12.952Z,0.50
2023-02-02T01:33:40.905Z,1.15
2023-02-02T01:36:11.324Z,1.08
2023-02-02T01:38:40.971Z,1.05
2023-02-02T01:41:08.718Z,1.20
2023-02-02T01:43:55.870Z,1.02
2023-02-02T01:46:25.429Z,0.80
2023-02-02T01:48:57.748Z,1.45
2023-02-02T01:51:28.535Z,0.98
2023-02-02T01:54:00.133Z,1.20
2023-02-02T01:56:31.637Z,1.00
2023-02-02T01:59:00.543Z,1.00
2023-02-02T02:03:57.035Z,1.25
2023-02-02T02:06:26.075Z,0.43
2023-02-02T02:08:58.079Z,1.50
2023-02-02T02:11:25.982Z,1.13
2023-02-02T02:14:13.471Z,1.08
2023-02-02T02:16:53.553Z,0.05
2023-02-02T02:20:04.120Z,0.43
2023-02-02T02:23:06.197Z,0.30
2023-02-02T02:26:12.222Z,0.00
2023-02-02T02:29:21.855Z,0.00
2023-02-02T02:32:02.146Z,1.27
2023-02-02T02:34:46.692Z,0.30
2023-02-02T02:37:20.737Z,0.35
2023-02-02T02:39:54.707Z,0.40
2023-02-02T02:42:26.204Z,0.10
2023-02-02T02:44:56.068Z,0.10
2023-02-02T02:47:25.313Z,0.40
2023-02-02T02:49:52.781Z,0.20
2023-02-02T02:52:20.214Z,0.10
2023-02-02T02:54:50.988Z,0.10
2023-02-02T02:57:32.973Z,0.10
2023-02-02T03:00:11.064Z,0.10
2023-02-02T03:02:48.876Z,0.10
2023-02-02T03:05:24.793Z,0.00
2023-02-02T03:07:59.464Z,0.10
2023-02-02T03:10:30.738Z,0.10
2023-02-02T03:12:58.712Z,0.13
2023-02-02T03:15:26.514Z,0.10
2023-02-02T03:17:55.787Z,0.20
2023-02-02T03:20:23.255Z,0.10
2023-02-02T03:22:50.779Z,0.05
2023-02-02T03:25:18.698Z,0.10
2023-02-02T03:27:46.157Z,0.05
2023-02-02T03:30:14.829Z,0.20
2023-02-02T03:32:42.643Z,0.03
2023-02-02T03:35:11.676Z,0.10
2023-02-02T03:40:08.399Z,0.10
2023-02-02T03:45:03.167Z,0.10
2023-02-02T03:47:31.148Z,0.20
2023-02-02T03:49:59.166Z,0.08
2023-02-02T03:52:28.067Z,0.10
2023-02-02T03:54:55.526Z,0.20
2023-02-02T03:57:22.992Z,0.20
2023-02-02T03:59:50.446Z,0.10
2023-02-02T04:02:18.001Z,0.20
2023-02-02T04:04:45.495Z,0.20
2023-02-02T04:07:12.949Z,0.13
2023-02-02T04:09:41.728Z,0.20
2023-02-02T04:12:09.350Z,0.30
2023-02-02T04:14:36.797Z,0.32
2023-02-02T04:17:04.301Z,0.38
2023-02-02T04:19:31.785Z,0.50
2023-02-02T04:21:59.218Z,0.35
2023-02-02T04:24:26.914Z,0.20
2023-02-02T04:26:55.763Z,0.35
2023-02-02T04:29:23.354Z,0.80
2023-02-02T04:31:50.932Z,0.77
2023-02-02T04:34:18.585Z,0.75
2023-02-02T04:36:46.035Z,0.38
2023-02-02T04:39:16.102Z,0.80
2023-02-02T04:41:43.534Z,0.75
2023-02-02T04:44:15.981Z,0.52
2023-02-02T04:46:43.673Z,1.17
2023-02-02T04:49:11.848Z,2.00
2023-02-02T04:51:39.869Z,1.60
2023-02-02T04:54:08.278Z,0.88
2023-02-02T04:56:36.124Z,1.88
2023-02-02T04:59:03.669Z,2.65
2023-02-02T05:01:32.515Z,2.05
2023-02-02T05:04:00.004Z,2.30
2023-02-02T05:06:27.442Z,1.67
2023-02-02T05:08:54.918Z,1.63
2023-02-02T05:11:24.389Z,1.30
2023-02-02T05:13:54.205Z,1.90
2023-02-02T05:16:23.403Z,1.70
2023-02-02T05:18:53.800Z,2.38
2023-02-02T05:21:21.920Z,5.65
2023-02-02T05:23:49.818Z,20.23
2023-02-02T05:26:19.754Z,2.55
2023-02-02T05:28:48.341Z,1.55
2023-02-02T05:31:16.161Z,1.02
2023-02-02T05:33:43.961Z,1.17
2023-02-02T05:36:13.148Z,1.65
2023-02-02T05:38:40.666Z,1.17
2023-02-02T05:41:08.145Z,1.33
2023-02-02T05:43:35.794Z,1.40
2023-02-02T05:46:03.484Z,1.88
2023-02-02T05:48:31.009Z,1.33
2023-02-02T05:51:04.305Z,0.95
2023-02-02T05:53:33.908Z,1.30
2023-02-02T05:56:01.372Z,0.63
2023-02-02T05:58:28.976Z,0.57
2023-02-02T06:00:56.988Z,1.25
2023-02-02T06:03:25.030Z,1.13
2023-02-02T06:05:52.582Z,0.70
2023-02-02T06:08:20.139Z,1.08
2023-02-02T06:10:49.082Z,0.50
2023-02-02T06:13:16.540Z,0.90
2023-02-02T06:15:44.093Z,0.50
2023-02-02T06:18:11.840Z,0.80
2023-02-02T06:20:39.403Z,1.88
2023-02-02T06:23:07.405Z,1.00
2023-02-02T06:25:35.168Z,1.30
2023-02-02T06:28:04.272Z,0.70
2023-02-02T06:30:31.795Z,1.20
2023-02-02T06:33:00.527Z,1.00
2023-02-02T06:35:28.128Z,0.75
2023-02-02T06:37:55.580Z,0.80
2023-02-02T06:40:23.014Z,0.77
2023-02-02T06:42:56.919Z,0.90
2023-02-02T06:45:26.211Z,0.82
2023-02-02T06:47:54.467Z,0.60
2023-02-02T06:50:21.900Z,1.02
2023-02-02T06:52:49.758Z,0.55
2023-02-02T06:55:18.047Z,0.75
2023-02-02T06:57:45.933Z,1.20
2023-02-02T07:00:14.764Z,1.17
2023-02-02T07:02:47.094Z,1.40
2023-02-02T07:05:14.595Z,1.58
2023-02-02T07:07:42.105Z,1.15
2023-02-02T07:10:10.308Z,0.80
2023-02-02T07:12:57.884Z,10.18
2023-02-02T07:15:25.878Z,11.95
2023-02-02T07:17:55.293Z,7.38
2023-02-02T07:20:22.737Z,5.47
2023-02-02T07:22:50.272Z,3.13
2023-02-02T07:25:18.097Z,3.22
2023-02-02T07:27:46.809Z,2.22
2023-02-02T07:30:15.955Z,2.33
2023-02-02T07:32:47.639Z,2.00
2023-02-02T07:35:16.732Z,1.90
2023-02-02T07:37:44.507Z,1.90
2023-02-02T07:40:12.866Z,1.70
2023-02-02T07:42:40.365Z,1.73
2023-02-02T07:45:27.308Z,1.02
2023-02-02T07:47:58.980Z,1.30
2023-02-02T07:50:30.223Z,0.73
2023-02-02T07:52:59.569Z,1.05
2023-02-02T07:55:27.188Z,1.40
2023-02-02T07:57:55.363Z,1.35
2023-02-02T08:00:24.723Z,2.90
2023-02-02T08:02:52.820Z,1.58
2023-02-02T08:05:22.611Z,1.48
2023-02-02T08:07:51.680Z,4.63
2023-02-02T08:10:19.350Z,2.58
2023-02-02T08:12:46.849Z,2.20
2023-02-02T08:15:14.309Z,2.17
2023-02-02T08:17:45.796Z,2.13
2023-02-02T08:20:14.423Z,1.55
2023-02-02T08:22:41.987Z,2.72
2023-02-02T08:25:11.132Z,2.00
2023-02-02T08:27:38.577Z,2.28
2023-02-02T08:30:06.750Z,1.90
2023-02-02T08:32:34.203Z,3.45
2023-02-02T08:35:01.633Z,1.75
2023-02-02T08:37:29.298Z,1.90
2023-02-02T08:39:56.804Z,1.25
2023-02-02T08:42:25.898Z,2.42
2023-02-02T08:45:59.731Z,1.77
2023-02-02T08:52:36.277Z,2.10
2023-02-02T08:55:04.278Z,2.55
2023-02-02T08:57:34.368Z,2.65
2023-02-02T09:00:01.831Z,2.38
2023-02-02T09:02:29.336Z,2.55
2023-02-02T09:04:56.806Z,0.45
2023-02-02T09:07:24.358Z,1.27
2023-02-02T09:09:53.881Z,2.55
2023-02-02T09:12:21.311Z,9.18
2023-02-02T09:14:50.273Z,4.13
2023-02-02T09:19:45.075Z,3.20
2023-02-02T09:22:12.514Z,2.13
2023-02-02T09:24:39.956Z,2.85
2023-02-02T09:27:07.467Z,1.88
2023-02-02T09:29:34.989Z,3.50
2023-02-02T09:32:03.940Z,2.53
2023-02-02T09:36:58.827Z,5.82
2023-02-02T09:39:26.407Z,3.42
2023-02-02T09:42:33.725Z,1.73
2023-02-02T09:45:06.909Z,2.78
2023-02-02T09:47:54.740Z,3.28
2023-02-02T09:50:35.278Z,3.33
2023-02-02T09:53:07.909Z,2.78
2023-02-02T09:55:38.761Z,2.08
2023-02-02T09:58:14.532Z,2.83
2023-02-02T10:00:46.574Z,2.03
2023-02-02T10:03:20.238Z,1.70
2023-02-02T10:05:54.919Z,2.67
2023-02-02T10:08:35.083Z,2.22
2023-02-02T10:11:24.466Z,4.10
2023-02-02T10:13:55.591Z,2.47
2023-02-02T10:16:25.204Z,2.67
2023-02-02T10:19:00.849Z,1.98
2023-02-02T10:21:36.730Z,2.28
2023-02-02T10:24:05.179Z,2.65
2023-02-02T10:26:39.425Z,2.92
2023-02-02T10:29:13.728Z,2.25
2023-02-02T10:31:49.079Z,1.83
2023-02-02T10:34:24.730Z,2.50
2023-02-02T10:37:02.946Z,1.65
2023-02-02T10:39:45.775Z,2.17
2023-02-02T10:42:23.221Z,1.92
2023-02-02T10:44:55.612Z,2.45
2023-02-02T10:47:27.045Z,2.78
2023-02-02T10:50:08.434Z,2.63
2023-02-02T10:52:36.858Z,1.75
2023-02-02T10:55:15.701Z,3.35
2023-02-02T10:58:01.633Z,3.10
2023-02-02T11:00:35.723Z,2.30
2023-02-02T11:03:04.730Z,2.80
2023-02-02T11:05:51.905Z,2.30
2023-02-02T11:08:23.003Z,2.17
2023-02-02T11:10:54.207Z,2.47
2023-02-02T11:13:28.567Z,1.20
2023-02-02T11:16:22.488Z,1.80
2023-02-02T11:18:50.441Z,1.85
2023-02-02T11:21:22.980Z,2.17
2023-02-02T11:23:56.196Z,1.02
2023-02-02T11:26:25.306Z,2.10
2023-02-02T11:28:55.104Z,1.98
2023-02-02T11:31:33.931Z,1.85
2023-02-02T11:34:10.668Z,2.92
2023-02-02T11:36:39.465Z,1.80
2023-02-02T11:39:17.545Z,3.03
2023-02-02T11:41:45.229Z,2.63
2023-02-02T11:44:25.362Z,1.60
2023-02-02T11:46:53.679Z,2.35
2023-02-02T11:49:23.928Z,2.17
2023-02-02T11:52:00.976Z,2.58
2023-02-02T11:54:31.268Z,2.38
2023-02-02T11:57:01.894Z,1.67
2023-02-02T11:59:32.586Z,1.67
2023-02-02T12:02:25.358Z,2.67
2023-02-02T12:04:54.931Z,1.85
2023-02-02T12:07:29.107Z,1.63
2023-02-02T12:10:01.160Z,1.60
2023-02-02T12:12:42.956Z,3.10
2023-02-02T12:15:23.820Z,1.10
2023-02-02T12:17:56.900Z,2.88
2023-02-02T12:20:36.485Z,3.15
2023-02-02T12:23:23.591Z,2.05
2023-02-02T12:28:45.034Z,3.13
2023-02-02T12:31:19.587Z,2.80
2023-02-02T12:33:54.274Z,1.35
2023-02-02T12:36:37.451Z,3.13
2023-02-02T12:39:37.859Z,2.20
2023-02-02T12:42:19.313Z,1.80
2023-02-02T12:45:08.818Z,3.03
2023-02-02T12:47:46.011Z,2.97
2023-02-02T12:50:26.055Z,2.65
2023-02-02T12:53:08.899Z,2.47
2023-02-02T12:55:45.507Z,1.80
2023-02-02T12:58:24.783Z,2.90
2023-02-02T13:01:07.636Z,2.42
2023-02-02T13:03:49.586Z,1.70
2023-02-02T13:06:45.351Z,2.50
2023-02-02T13:09:19.650Z,2.00
2023-02-02T13:11:54.839Z,3.08
2023-02-02T13:14:27.092Z,3.40
2023-02-02T13:17:00.315Z,2.33
2023-02-02T13:19:35.269Z,2.45
2023-02-02T13:22:05.544Z,2.67
2023-02-02T13:24:38.075Z,1.83
2023-02-02T13:27:11.761Z,1.83
2023-02-02T13:29:48.363Z,2.33
2023-02-02T13:32:22.571Z,1.58
2023-02-02T13:34:56.209Z,1.77
2023-02-02T13:37:32.716Z,1.95
2023-02-02T13:40:03.885Z,1.15
2023-02-02T13:42:41.915Z,1.85
2023-02-02T13:45:28.856Z,2.10
2023-02-02T13:48:06.729Z,2.55
2023-02-02T13:50:47.240Z,1.50
2023-02-02T13:53:39.669Z,1.73
2023-02-02T13:56:20.921Z,1.42
2023-02-02T14:01:28.221Z,0.70
2023-02-02T14:03:58.176Z,1.05
2023-02-02T14:06:27.355Z,2.47
2023-02-02T14:08:57.645Z,1.70
2023-02-02T14:11:31.894Z,1.48
2023-02-02T14:14:23.570Z,2.72
2023-02-02T14:16:53.255Z,2.53
2023-02-02T14:19:53.433Z,2.88
2023-02-02T14:22:40.209Z,2.10
2023-02-02T14:25:45.086Z,1.52
2023-02-02T14:28:14.379Z,1.90
2023-02-02T14:30:43.201Z,2.67
2023-02-02T14:33:37.960Z,2.58
2023-02-02T14:36:06.949Z,2.42
2023-02-02T14:38:59.800Z,1.65
2023-02-02T14:42:22.559Z,18.08
2023-02-02T14:45:20.587Z,15.80
2023-02-02T14:47:52.756Z,3.95
2023-02-02T14:50:26.127Z,9.05
2023-02-02T14:53:00.620Z,6.47
2023-02-02T14:55:28.777Z,3.85
2023-02-02T14:57:58.156Z,3.75
2023-02-02T15:00:28.931Z,3.88
2023-02-02T15:02:57.859Z,4.93
2023-02-02T15:08:21.800Z,2.25
2023-02-02T15:11:27.889Z,2.80
2023-02-02T15:14:06.937Z,3.08
2023-02-02T15:16:37.712Z,6.07
2023-02-02T15:19:18.487Z,4.65
2023-02-02T15:21:50.072Z,2.30
2023-02-02T15:24:23.962Z,2.55
2023-02-02T15:26:54.462Z,4.60
2023-02-02T15:29:36.172Z,7.97
2023-02-02T15:32:07.100Z,3.88
2023-02-02T15:34:41.190Z,4.40
2023-02-02T15:37:14.291Z,4.68
2023-02-02T15:39:43.761Z,5.90
2023-02-02T15:42:34.426Z,6.18
2023-02-02T15:45:01.942Z,6.03
2023-02-02T15:47:33.948Z,6.05
2023-02-02T15:50:05.180Z,4.20
2023-02-02T15:52:35.454Z,3.35
2023-02-02T15:55:03.348Z,3.00
2023-02-02T15:57:33.847Z,3.55
2023-02-02T16:00:03.564Z,1.88
2023-02-02T16:02:38.526Z,2.25
2023-02-02T16:05:25.971Z,3.25
2023-02-02T16:08:05.026Z,2.67
2023-02-02T16:10:34.121Z,3.10
2023-02-02T16:13:01.884Z,2.80
2023-02-02T16:15:31.658Z,5.28
2023-02-02T16:18:00.622Z,2.03
2023-02-02T16:23:01.792Z,2.83
2023-02-02T16:25:33.279Z,3.17
2023-02-02T16:28:01.614Z,3.33
2023-02-02T16:30:31.725Z,2.42
2023-02-02T16:32:59.377Z,2.13
2023-02-02T16:35:36.119Z,3.33
2023-02-02T16:38:15.035Z,3.63
2023-02-02T16:40:42.665Z,2.97
2023-02-02T16:43:18.392Z,3.33
2023-02-02T16:45:49.042Z,3.75
2023-02-02T16:48:32.889Z,2.13
2023-02-02T16:51:26.726Z,2.53
2023-02-02T16:54:03.281Z,2.55
2023-02-02T16:56:34.959Z,2.75
2023-02-02T16:59:06.648Z,4.05
2023-02-02T17:01:39.353Z,3.70
2023-02-02T17:04:17.041Z,4.63
2023-02-02T17:06:52.718Z,3.75
2023-02-02T17:09:34.344Z,3.38
2023-02-02T17:12:09.363Z,3.20
2023-02-02T17:14:51.979Z,3.45
2023-02-02T17:17:19.730Z,3.95
2023-02-02T17:19:47.848Z,3.80
2023-02-02T17:22:18.537Z,8.85
2023-02-02T17:24:48.032Z,5.00
2023-02-02T17:27:18.465Z,4.25
2023-02-02T17:29:46.341Z,5.45
2023-02-02T17:32:14.518Z,4.00
2023-02-02T17:34:42.008Z,7.15
2023-02-02T17:37:09.691Z,6.15
2023-02-02T17:39:38.818Z,6.25
2023-02-02T17:42:07.434Z,3.97
2023-02-02T17:44:34.889Z,4.07
2023-02-02T17:47:02.568Z,3.70
2023-02-02T17:49:30.049Z,2.80
2023-02-02T17:51:57.575Z,3.42
2023-02-02T17:54:25.184Z,4.95
2023-02-02T17:56:53.977Z,3.60
2023-02-02T17:59:21.413Z,5.88
2023-02-02T18:01:49.181Z,4.25
2023-02-02T18:04:16.747Z,4.35
2023-02-02T18:06:44.276Z,4.32
2023-02-02T18:09:11.823Z,3.00
2023-02-02T18:11:41.491Z,2.63
2023-02-02T18:14:11.491Z,4.97
2023-02-02T18:21:33.613Z,4.25
2023-02-02T18:24:01.281Z,3.60
2023-02-02T18:26:28.826Z,3.83
2023-02-02T18:28:56.335Z,2.58
2023-02-02T18:31:25.295Z,3.33
2023-02-02T18:33:53.713Z,8.50
2023-02-02T18:36:23.499Z,5.35
2023-02-02T18:38:53.668Z,5.50
2023-02-02T18:41:21.960Z,6.45
2023-02-02T18:43:49.675Z,4.93
2023-02-02T18:46:17.954Z,5.97
2023-02-02T18:48:46.812Z,2.67
2023-02-02T18:51:16.585Z,4.55
2023-02-02T18:53:44.601Z,5.78
2023-02-02T18:56:13.430Z,7.18
2023-02-02T18:58:41.791Z,4.63
2023-02-02T19:01:10.516Z,6.13
2023-02-02T19:03:39.261Z,4.78
2023-02-02T19:06:27.255Z,5.70
2023-02-02T19:08:55.272Z,3.33
2023-02-02T19:11:26.571Z,3.55
2023-02-02T19:13:54.574Z,4.25
2023-02-02T19:16:25.846Z,5.35
2023-02-02T19:18:57.186Z,6.95
2023-02-02T19:21:30.001Z,4.75
2023-02-02T19:23:58.070Z,6.53
2023-02-02T19:26:27.548Z,4.88
2023-02-02T19:28:59.042Z,4.32
2023-02-02T19:31:26.608Z,5.20
2023-02-02T19:33:55.427Z,5.05
2023-02-02T19:36:25.227Z,6.30
2023-02-02T19:39:05.124Z,5.57
2023-02-02T19:41:33.233Z,4.07
2023-02-02T19:44:07.162Z,8.80
2023-02-02T19:46:43.172Z,6.00
2023-02-02T19:49:14.323Z,2.92
2023-02-02T19:51:44.071Z,3.90
2023-02-02T19:54:28.037Z,4.65
2023-02-02T19:56:58.356Z,3.58
2023-02-02T19:59:28.731Z,4.03
2023-02-02T20:01:56.285Z,3.35
2023-02-02T20:04:24.285Z,2.75
2023-02-02T20:06:58.922Z,4.25
2023-02-02T20:09:34.449Z,1.38
2023-02-02T20:12:02.065Z,3.25
2023-02-02T20:14:34.412Z,4.10
2023-02-02T20:17:05.745Z,1.58
2023-02-02T20:19:36.226Z,3.05
2023-02-02T20:22:04.643Z,4.38
2023-02-02T20:24:36.942Z,2.47
2023-02-02T20:27:14.645Z,1.45
2023-02-02T20:29:44.691Z,2.50
2023-02-02T20:32:21.039Z,3.00
2023-02-02T20:34:50.586Z,1.40
2023-02-02T20:37:23.398Z,2.63
2023-02-02T20:39:55.449Z,1.85
2023-02-02T20:42:23.306Z,2.15
2023-02-02T20:44:51.702Z,1.80
2023-02-02T20:47:19.859Z,2.42
2023-02-02T20:49:47.495Z,2.75
2023-02-02T20:52:21.831Z,2.85
2023-02-02T20:54:49.361Z,1.35
2023-02-02T20:57:18.638Z,1.95
2023-02-02T20:59:46.147Z,2.08
2023-02-02T21:02:18.923Z,1.80
2023-02-02T21:04:47.616Z,1.23
2023-02-02T21:07:16.697Z,1.73
2023-02-02T21:09:44.221Z,1.92
2023-02-02T21:12:11.731Z,2.72
2023-02-02T21:14:40.886Z,2.55
2023-02-02T21:17:15.392Z,1.27
2023-02-02T21:22:11.579Z,1.55
2023-02-02T21:24:39.312Z,2.03
2023-02-02T21:27:07.458Z,2.42
2023-02-02T21:29:34.987Z,1.20
2023-02-02T21:32:04.862Z,2.47
2023-02-02T21:34:33.311Z,3.10
2023-02-02T21:37:00.999Z,2.40
2023-02-02T21:39:31.408Z,1.95
2023-02-02T21:42:12.216Z,1.98
2023-02-02T21:44:42.131Z,1.88
2023-02-02T21:47:33.224Z,2.95
2023-02-02T21:50:12.439Z,1.90
2023-02-02T21:52:40.111Z,2.83
2023-02-02T21:55:29.720Z,2.70
2023-02-02T21:57:59.123Z,2.97
2023-02-02T22:00:30.813Z,2.38
2023-02-02T22:03:00.196Z,2.58
2023-02-02T22:05:34.581Z,3.25
2023-02-02T22:08:08.681Z,2.33
2023-02-02T22:10:38.752Z,2.22
2023-02-02T22:13:16.639Z,3.17
2023-02-02T22:15:45.952Z,2.72
2023-02-02T22:18:18.015Z,1.67
2023-02-02T22:20:47.334Z,3.28
2023-02-02T22:23:17.049Z,2.25
2023-02-02T22:25:45.501Z,3.15
2023-02-02T22:28:21.135Z,2.30
2023-02-02T22:30:50.149Z,1.98
2023-02-02T22:33:19.681Z,2.00
2023-02-02T22:35:47.385Z,2.85
2023-02-02T22:38:18.215Z,0.77
2023-02-02T22:40:45.736Z,0.30
2023-02-02T22:43:16.073Z,1.75
2023-02-02T22:45:43.750Z,2.10
2023-02-02T22:48:11.995Z,4.00
2023-02-02T22:50:41.444Z,2.58
2023-02-02T22:53:08.944Z,1.60
2023-02-02T22:55:36.561Z,4.85
2023-02-02T22:58:04.034Z,2.90
2023-02-02T23:00:33.186Z,2.22
2023-02-02T23:03:01.103Z,1.90
2023-02-02T23:05:29.092Z,1.23
2023-02-02T23:07:57.886Z,1.05
2023-02-02T23:10:29.459Z,2.58
2023-02-02T23:12:58.435Z,2.95
2023-02-02T23:15:26.381Z,1.48
2023-02-02T23:17:54.663Z,2.88
2023-02-02T23:20:22.592Z,1.80
2023-02-02T23:22:50.156Z,1.73
2023-02-02T23:25:19.599Z,1.58
2023-02-02T23:27:47.151Z,0.75
2023-02-02T23:30:15.399Z,2.33
2023-02-02T23:32:43.158Z,2.55
2023-02-02T23:35:11.238Z,1.77
2023-02-02T23:37:39.006Z,2.25
2023-02-02T23:40:07.677Z,3.17
2023-02-02T23:42:37.438Z,3.75
2023-02-02T23:45:05.817Z,1.80
2023-02-02T23:47:33.870Z,1.77
2023-02-02T23:50:04.166Z,2.60
2023-02-02T23:52:32.310Z,1.77
2023-02-02T23:55:00.822Z,2.22
2023-02-02T23:57:28.578Z,1.80
2023-02-02T23:59:57.415Z,2.20
